Daily Data: Gold Canyon

   
6/25/17
Time         Wind Dir   Wind Spd  Wind Gust   Humidity       Temp  Dew Point   Barom SL  DailyRain   HourRain   RainRate
                            mph        mph          %         F         F         in         in         in      in/hr
12:00am            70          3          3         14       95.0       38.4      29.58       0.00       0.00      0.000
12:05am            60          1          4         14       95.9       39.1      29.58       0.00       0.00      0.000
12:10am            60          2          4         13       96.4       37.6      29.58       0.00       0.00      0.000
12:20am           150          1          4         15       95.7       40.7      29.58       0.00       0.00      0.000
12:25am           150          2          4         18       94.9       44.8      29.59       0.00       0.00      0.000
12:30am           131          3          4         16       94.5       41.4      29.58       0.00       0.00      0.000
12:35am            81          1          4         14       94.5       38.0      29.58       0.00       0.00      0.000
12:40am           146          4          7         17       94.6       43.1      29.59       0.00       0.00      0.000
12:45am           149          3          7         18       94.3       44.3      29.59       0.00       0.00      0.000
12:50am           112          3          5         16       94.3       41.3      29.59       0.00       0.00      0.000
12:55am           103          6          7         16       94.9       41.7      29.60       0.00       0.00      0.000
1:00am             91          6         11         15       95.5       40.6      29.60       0.00       0.00      0.000
1:05am            125          5         11         15       96.4       41.3      29.60       0.00       0.00      0.000
1:10am             98         11         16         16       97.5       43.8      29.60       0.00       0.00      0.000
1:15am            131          7         18         18       98.8       48.0      29.60       0.00       0.00      0.000
1:20am            104         11         13         19       98.7       49.3      29.60       0.00       0.00      0.000
1:25am            112          6         17         19       98.5       49.2      29.60       0.00       0.00      0.000
1:30am            114         13         17         19       98.1       48.8      29.60       0.00       0.00      0.000
1:35am             96         13         15         19       98.1       48.8      29.60       0.00       0.00      0.000
1:40am             92         12         15         20       98.1       50.2      29.61       0.00       0.00      0.000
1:45am            112         11         16         20       98.0       50.1      29.61       0.00       0.00      0.000
1:50am            123          8         14         21       97.6       51.1      29.61       0.00       0.00      0.000
1:55am            106          9         14         21       97.3       50.9      29.61       0.00       0.00      0.000
2:00am            106         10         14         22       97.1       52.0      29.61       0.00       0.00      0.000
2:05am            101          8         14         22       97.1       52.0      29.61       0.00       0.00      0.000
2:10am            114         10         19         22       97.1       52.0      29.61       0.00       0.00      0.000
2:15am            158          9         19         23       96.9       53.0      29.61       0.00       0.00      0.000
2:20am             93         10         21         23       96.8       52.9      29.62       0.00       0.00      0.000
2:25am            110         10         21         23       96.7       52.8      29.62       0.00       0.00      0.000
2:30am            119         12         21         23       96.6       52.8      29.62       0.00       0.00      0.000
2:35am            123         11         13         23       96.3       52.5      29.62       0.00       0.00      0.000
2:40am            127          9         17         24       96.2       53.6      29.62       0.00       0.00      0.000
2:45am            125          9         18         24       95.9       53.3      29.62       0.00       0.00      0.000
2:50am            119         12         16         24       95.7       53.2      29.63       0.00       0.00      0.000
2:55am            112          7         18         24       95.6       53.1      29.63       0.00       0.00      0.000
3:00am             95          6         19         24       95.4       52.9      29.63       0.00       0.00      0.000
3:05am            114         10         19         24       95.4       52.9      29.63       0.00       0.00      0.000
3:10am            126         11         19         24       95.3       52.8      29.63       0.00       0.00      0.000